Terminal Aerodrome Forecast
Issued by NWS

Home | Current Version | Previous Version | Text Only | Print | Product List | Glossary On
Versions: 1 2 3 4 5 6 7 8 9 10 11 12 13 14 15 16 17 18 19 20
000
FTUS41 KGYX 241123
TAFMHT
TAF
KMHT 241123Z 2412/2512 VRB03KT P6SM BKN120
     FM241400 VRB03KT 5SM -SHRA BR OVC012
     FM241800 17005KT 6SM -DZ BR OVC012
     FM250000 17005KT 6SM -DZ BR OVC020 WS015/23030KT=

USA.gov is the U.S. government's official web portal to all federal, state and local government web resources and services.